sensor_id;sensor_type;location;lat;lon;timestamp;temperature;humidity
41310;DHT22;27057;51.438;-0.010;2022-11-25T00:01:28;9.40;99.90
41310;DHT22;27057;51.438;-0.010;2022-11-25T00:03:57;9.50;99.90
41310;DHT22;27057;51.438;-0.010;2022-11-25T00:06:26;9.50;99.90
41310;DHT22;27057;51.438;-0.010;2022-11-25T00:08:56;9.50;99.90
41310;DHT22;27057;51.438;-0.010;2022-11-25T00:11:24;9.50;99.90
41310;DHT22;27057;51.438;-0.010;2022-11-25T00:13:52;9.50;99.90
41310;DHT22;27057;51.438;-0.010;2022-11-25T00:16:21;9.50;99.90
41310;DHT22;27057;51.438;-0.010;2022-11-25T00:18:51;9.50;99.90
41310;DHT22;27057;51.438;-0.010;2022-11-25T00:21:24;9.50;99.90
41310;DHT22;27057;51.438;-0.010;2022-11-25T00:23:56;9.50;99.90
41310;DHT22;27057;51.438;-0.010;2022-11-25T00:26:25;9.50;99.90
41310;DHT22;27057;51.438;-0.010;2022-11-25T00:28:53;9.50;99.90
41310;DHT22;27057;51.438;-0.010;2022-11-25T00:31:23;9.60;99.90
41310;DHT22;27057;51.438;-0.010;2022-11-25T00:33:51;9.60;99.90
41310;DHT22;27057;51.438;-0.010;2022-11-25T00:36:22;9.60;99.90
41310;DHT22;27057;51.438;-0.010;2022-11-25T00:38:55;9.60;99.90
41310;DHT22;27057;51.438;-0.010;2022-11-25T00:41:23;9.70;99.90
41310;DHT22;27057;51.438;-0.010;2022-11-25T00:44:10;9.70;99.90
41310;DHT22;27057;51.438;-0.010;2022-11-25T00:46:56;9.70;99.90
41310;DHT22;27057;51.438;-0.010;2022-11-25T00:49:23;9.70;99.90
41310;DHT22;27057;51.438;-0.010;2022-11-25T00:51:51;9.80;99.90
41310;DHT22;27057;51.438;-0.010;2022-11-25T00:54:18;9.70;99.90
41310;DHT22;27057;51.438;-0.010;2022-11-25T00:56:45;9.80;99.90
41310;DHT22;27057;51.438;-0.010;2022-11-25T00:59:12;9.80;99.90
41310;DHT22;27057;51.438;-0.010;2022-11-25T01:01:40;9.80;99.90
41310;DHT22;27057;51.438;-0.010;2022-11-25T01:04:07;9.80;99.90
41310;DHT22;27057;51.438;-0.010;2022-11-25T01:06:36;9.80;99.90
41310;DHT22;27057;51.438;-0.010;2022-11-25T01:09:05;9.80;99.90
41310;DHT22;27057;51.438;-0.010;2022-11-25T01:11:33;10.00;99.90
41310;DHT22;27057;51.438;-0.010;2022-11-25T01:14:00;9.80;99.90
41310;DHT22;27057;51.438;-0.010;2022-11-25T01:16:29;9.80;99.90
41310;DHT22;27057;51.438;-0.010;2022-11-25T01:19:00;9.90;99.90
41310;DHT22;27057;51.438;-0.010;2022-11-25T01:21:30;10.10;99.90
41310;DHT22;27057;51.438;-0.010;2022-11-25T01:23:59;9.70;99.90
41310;DHT22;27057;51.438;-0.010;2022-11-25T01:26:28;10.20;99.90
41310;DHT22;27057;51.438;-0.010;2022-11-25T01:29:02;10.00;99.90
41310;DHT22;27057;51.438;-0.010;2022-11-25T01:31:34;10.40;99.90
41310;DHT22;27057;51.438;-0.010;2022-11-25T01:34:10;10.00;99.90
41310;DHT22;27057;51.438;-0.010;2022-11-25T01:36:38;10.30;99.90
41310;DHT22;27057;51.438;-0.010;2022-11-25T01:39:06;9.60;99.90
41310;DHT22;27057;51.438;-0.010;2022-11-25T01:41:34;10.00;99.90
41310;DHT22;27057;51.438;-0.010;2022-11-25T01:44:10;9.70;99.90
41310;DHT22;27057;51.438;-0.010;2022-11-25T01:49:48;9.50;99.90
41310;DHT22;27057;51.438;-0.010;2022-11-25T01:52:26;9.60;99.90
41310;DHT22;27057;51.438;-0.010;2022-11-25T01:57:57;9.40;99.90
41310;DHT22;27057;51.438;-0.010;2022-11-25T02:00:25;9.40;99.90
41310;DHT22;27057;51.438;-0.010;2022-11-25T02:02:54;9.40;99.90
41310;DHT22;27057;51.438;-0.010;2022-11-25T02:05:41;9.50;99.90
41310;DHT22;27057;51.438;-0.010;2022-11-25T02:08:13;9.30;99.90
41310;DHT22;27057;51.438;-0.010;2022-11-25T02:10:42;9.70;99.90
41310;DHT22;27057;51.438;-0.010;2022-11-25T02:13:10;9.40;99.90
41310;DHT22;27057;51.438;-0.010;2022-11-25T02:15:38;9.30;99.90
41310;DHT22;27057;51.438;-0.010;2022-11-25T02:18:05;9.40;99.90
41310;DHT22;27057;51.438;-0.010;2022-11-25T02:20:34;9.50;99.90
41310;DHT22;27057;51.438;-0.010;2022-11-25T02:26:03;9.30;99.90
41310;DHT22;27057;51.438;-0.010;2022-11-25T02:28:32;9.30;99.90
41310;DHT22;27057;51.438;-0.010;2022-11-25T02:31:03;9.40;99.90
41310;DHT22;27057;51.438;-0.010;2022-11-25T02:33:31;9.40;99.90
41310;DHT22;27057;51.438;-0.010;2022-11-25T02:36:01;9.20;99.90
41310;DHT22;27057;51.438;-0.010;2022-11-25T02:41:32;9.30;99.90
41310;DHT22;27057;51.438;-0.010;2022-11-25T02:44:04;9.30;99.90
41310;DHT22;27057;51.438;-0.010;2022-11-25T02:46:32;9.30;99.90
41310;DHT22;27057;51.438;-0.010;2022-11-25T02:49:02;9.60;99.90
41310;DHT22;27057;51.438;-0.010;2022-11-25T02:51:42;9.50;99.90
41310;DHT22;27057;51.438;-0.010;2022-11-25T02:54:12;9.70;99.90
41310;DHT22;27057;51.438;-0.010;2022-11-25T02:56:40;10.30;99.90
41310;DHT22;27057;51.438;-0.010;2022-11-25T02:59:08;9.10;99.90
41310;DHT22;27057;51.438;-0.010;2022-11-25T03:01:37;9.70;99.90
41310;DHT22;27057;51.438;-0.010;2022-11-25T03:04:07;10.40;99.90
41310;DHT22;27057;51.438;-0.010;2022-11-25T03:06:34;9.50;99.90
41310;DHT22;27057;51.438;-0.010;2022-11-25T03:09:02;9.40;99.90
41310;DHT22;27057;51.438;-0.010;2022-11-25T03:11:31;9.60;99.90
41310;DHT22;27057;51.438;-0.010;2022-11-25T03:14:17;9.60;99.90
41310;DHT22;27057;51.438;-0.010;2022-11-25T03:16:44;10.00;99.90
41310;DHT22;27057;51.438;-0.010;2022-11-25T03:19:11;9.50;99.90
41310;DHT22;27057;51.438;-0.010;2022-11-25T03:21:39;10.20;99.90
41310;DHT22;27057;51.438;-0.010;2022-11-25T03:24:06;9.60;99.90
41310;DHT22;27057;51.438;-0.010;2022-11-25T03:26:34;9.60;99.90
41310;DHT22;27057;51.438;-0.010;2022-11-25T03:29:01;9.90;99.90
41310;DHT22;27057;51.438;-0.010;2022-11-25T03:31:29;10.00;99.90
41310;DHT22;27057;51.438;-0.010;2022-11-25T03:33:56;10.40;99.90
41310;DHT22;27057;51.438;-0.010;2022-11-25T03:36:23;9.60;99.90
41310;DHT22;27057;51.438;-0.010;2022-11-25T03:38:51;9.80;99.90
41310;DHT22;27057;51.438;-0.010;2022-11-25T03:41:18;9.90;99.90
41310;DHT22;27057;51.438;-0.010;2022-11-25T03:43:45;10.20;99.90
41310;DHT22;27057;51.438;-0.010;2022-11-25T03:46:13;9.80;99.90
41310;DHT22;27057;51.438;-0.010;2022-11-25T03:48:40;11.00;99.90
41310;DHT22;27057;51.438;-0.010;2022-11-25T03:51:08;9.70;99.90
41310;DHT22;27057;51.438;-0.010;2022-11-25T03:53:37;9.90;99.90
41310;DHT22;27057;51.438;-0.010;2022-11-25T03:56:07;10.00;99.90
41310;DHT22;27057;51.438;-0.010;2022-11-25T03:58:34;10.20;99.90
41310;DHT22;27057;51.438;-0.010;2022-11-25T04:01:03;10.00;99.90
41310;DHT22;27057;51.438;-0.010;2022-11-25T04:03:31;9.70;99.90
41310;DHT22;27057;51.438;-0.010;2022-11-25T04:05:59;9.70;99.90
41310;DHT22;27057;51.438;-0.010;2022-11-25T04:08:27;10.80;99.90
41310;DHT22;27057;51.438;-0.010;2022-11-25T04:10:55;10.10;99.90
41310;DHT22;27057;51.438;-0.010;2022-11-25T04:13:26;9.50;99.90
41310;DHT22;27057;51.438;-0.010;2022-11-25T04:15:53;10.10;99.90
41310;DHT22;27057;51.438;-0.010;2022-11-25T04:18:21;9.90;99.90
41310;DHT22;27057;51.438;-0.010;2022-11-25T04:20:52;10.00;99.90
41310;DHT22;27057;51.438;-0.010;2022-11-25T04:23:21;10.60;99.90
41310;DHT22;27057;51.438;-0.010;2022-11-25T04:25:59;9.50;99.90
41310;DHT22;27057;51.438;-0.010;2022-11-25T04:28:33;9.90;99.90
41310;DHT22;27057;51.438;-0.010;2022-11-25T04:31:05;9.90;99.90
41310;DHT22;27057;51.438;-0.010;2022-11-25T04:33:34;9.80;99.90
41310;DHT22;27057;51.438;-0.010;2022-11-25T04:36:02;9.60;99.90
41310;DHT22;27057;51.438;-0.010;2022-11-25T04:38:30;9.40;99.90
41310;DHT22;27057;51.438;-0.010;2022-11-25T04:40:57;9.80;99.90
41310;DHT22;27057;51.438;-0.010;2022-11-25T04:43:25;9.60;99.90
41310;DHT22;27057;51.438;-0.010;2022-11-25T04:46:00;9.60;99.90
41310;DHT22;27057;51.438;-0.010;2022-11-25T04:48:47;9.70;99.90
41310;DHT22;27057;51.438;-0.010;2022-11-25T04:51:15;9.80;99.90
41310;DHT22;27057;51.438;-0.010;2022-11-25T04:53:44;9.50;99.90
41310;DHT22;27057;51.438;-0.010;2022-11-25T04:56:17;9.80;99.90
41310;DHT22;27057;51.438;-0.010;2022-11-25T04:58:46;9.70;99.90
41310;DHT22;27057;51.438;-0.010;2022-11-25T05:01:36;9.60;99.90
41310;DHT22;27057;51.438;-0.010;2022-11-25T05:04:23;9.50;99.90
41310;DHT22;27057;51.438;-0.010;2022-11-25T05:06:50;9.40;99.90
41310;DHT22;27057;51.438;-0.010;2022-11-25T05:09:19;9.60;99.90
41310;DHT22;27057;51.438;-0.010;2022-11-25T05:11:56;9.90;99.90
41310;DHT22;27057;51.438;-0.010;2022-11-25T05:14:23;9.80;99.90
41310;DHT22;27057;51.438;-0.010;2022-11-25T05:16:52;9.80;99.90
41310;DHT22;27057;51.438;-0.010;2022-11-25T05:19:20;9.50;99.90
41310;DHT22;27057;51.438;-0.010;2022-11-25T05:21:48;9.90;99.90
41310;DHT22;27057;51.438;-0.010;2022-11-25T05:24:15;9.60;99.90
41310;DHT22;27057;51.438;-0.010;2022-11-25T05:26:42;9.50;99.90
41310;DHT22;27057;51.438;-0.010;2022-11-25T05:29:10;9.40;99.90
41310;DHT22;27057;51.438;-0.010;2022-11-25T05:31:38;9.60;99.90
41310;DHT22;27057;51.438;-0.010;2022-11-25T05:34:05;9.40;99.90
41310;DHT22;27057;51.438;-0.010;2022-11-25T05:36:33;9.40;99.90
41310;DHT22;27057;51.438;-0.010;2022-11-25T05:39:00;9.60;99.90
41310;DHT22;27057;51.438;-0.010;2022-11-25T05:41:45;9.60;99.90
41310;DHT22;27057;51.438;-0.010;2022-11-25T05:44:14;9.50;99.90
41310;DHT22;27057;51.438;-0.010;2022-11-25T05:46:49;9.40;99.90
41310;DHT22;27057;51.438;-0.010;2022-11-25T05:49:17;9.40;99.90
41310;DHT22;27057;51.438;-0.010;2022-11-25T05:51:46;9.50;99.90
41310;DHT22;27057;51.438;-0.010;2022-11-25T05:54:14;9.70;99.90
41310;DHT22;27057;51.438;-0.010;2022-11-25T05:56:41;9.60;99.90
41310;DHT22;27057;51.438;-0.010;2022-11-25T05:59:31;9.70;99.90
41310;DHT22;27057;51.438;-0.010;2022-11-25T06:02:10;9.60;99.90
41310;DHT22;27057;51.438;-0.010;2022-11-25T06:04:38;9.40;99.90
41310;DHT22;27057;51.438;-0.010;2022-11-25T06:07:05;9.70;99.90
41310;DHT22;27057;51.438;-0.010;2022-11-25T06:09:33;9.80;99.90
41310;DHT22;27057;51.438;-0.010;2022-11-25T06:12:00;9.60;99.90
41310;DHT22;27057;51.438;-0.010;2022-11-25T06:14:30;9.40;99.90
41310;DHT22;27057;51.438;-0.010;2022-11-25T06:16:57;9.40;99.90
41310;DHT22;27057;51.438;-0.010;2022-11-25T06:19:31;9.30;99.90
41310;DHT22;27057;51.438;-0.010;2022-11-25T06:21:58;10.10;99.90
41310;DHT22;27057;51.438;-0.010;2022-11-25T06:24:27;9.30;99.90
41310;DHT22;27057;51.438;-0.010;2022-11-25T06:26:59;9.30;99.90
41310;DHT22;27057;51.438;-0.010;2022-11-25T06:29:27;9.20;99.90
41310;DHT22;27057;51.438;-0.010;2022-11-25T06:31:54;9.60;99.90
41310;DHT22;27057;51.438;-0.010;2022-11-25T06:34:43;9.20;99.90
41310;DHT22;27057;51.438;-0.010;2022-11-25T06:37:21;9.20;99.90
41310;DHT22;27057;51.438;-0.010;2022-11-25T06:39:48;9.20;99.90
41310;DHT22;27057;51.438;-0.010;2022-11-25T06:42:16;9.20;99.90
41310;DHT22;27057;51.438;-0.010;2022-11-25T06:44:43;9.20;99.90
41310;DHT22;27057;51.438;-0.010;2022-11-25T06:47:10;9.20;99.90
41310;DHT22;27057;51.438;-0.010;2022-11-25T06:49:37;9.60;99.90
41310;DHT22;27057;51.438;-0.010;2022-11-25T06:52:05;9.50;99.90
41310;DHT22;27057;51.438;-0.010;2022-11-25T06:54:32;9.10;99.90
41310;DHT22;27057;51.438;-0.010;2022-11-25T06:57:00;9.10;99.90
41310;DHT22;27057;51.438;-0.010;2022-11-25T06:59:27;9.30;99.90
41310;DHT22;27057;51.438;-0.010;2022-11-25T07:01:55;9.00;99.90
41310;DHT22;27057;51.438;-0.010;2022-11-25T07:04:22;9.00;99.90
41310;DHT22;27057;51.438;-0.010;2022-11-25T07:06:50;9.30;99.90
41310;DHT22;27057;51.438;-0.010;2022-11-25T07:09:18;9.20;99.90
41310;DHT22;27057;51.438;-0.010;2022-11-25T07:11:45;9.00;99.90
41310;DHT22;27057;51.438;-0.010;2022-11-25T07:14:14;9.30;99.90
41310;DHT22;27057;51.438;-0.010;2022-11-25T07:16:43;9.00;99.90
41310;DHT22;27057;51.438;-0.010;2022-11-25T07:19:13;8.90;99.90
41310;DHT22;27057;51.438;-0.010;2022-11-25T07:21:41;8.90;99.90
41310;DHT22;27057;51.438;-0.010;2022-11-25T07:24:13;8.90;99.90
41310;DHT22;27057;51.438;-0.010;2022-11-25T07:26:42;8.90;99.90
41310;DHT22;27057;51.438;-0.010;2022-11-25T07:29:12;8.90;99.90
41310;DHT22;27057;51.438;-0.010;2022-11-25T07:32:01;8.80;99.90
41310;DHT22;27057;51.438;-0.010;2022-11-25T07:34:36;8.80;99.90
41310;DHT22;27057;51.438;-0.010;2022-11-25T07:37:03;8.80;99.90
41310;DHT22;27057;51.438;-0.010;2022-11-25T07:39:31;8.70;99.90
41310;DHT22;27057;51.438;-0.010;2022-11-25T07:41:58;8.80;99.90
41310;DHT22;27057;51.438;-0.010;2022-11-25T07:44:25;8.70;99.90
41310;DHT22;27057;51.438;-0.010;2022-11-25T07:47:00;8.70;99.90
41310;DHT22;27057;51.438;-0.010;2022-11-25T07:49:27;8.60;99.90
41310;DHT22;27057;51.438;-0.010;2022-11-25T07:51:56;8.60;99.90
41310;DHT22;27057;51.438;-0.010;2022-11-25T07:54:25;8.60;99.90
41310;DHT22;27057;51.438;-0.010;2022-11-25T07:56:53;8.30;99.90
41310;DHT22;27057;51.438;-0.010;2022-11-25T07:59:22;8.60;99.90
41310;DHT22;27057;51.438;-0.010;2022-11-25T08:01:51;8.60;99.90
41310;DHT22;27057;51.438;-0.010;2022-11-25T08:04:19;8.60;99.90
41310;DHT22;27057;51.438;-0.010;2022-11-25T08:06:49;8.50;99.90
41310;DHT22;27057;51.438;-0.010;2022-11-25T08:09:20;8.60;99.90
41310;DHT22;27057;51.438;-0.010;2022-11-25T08:11:48;8.60;99.90
41310;DHT22;27057;51.438;-0.010;2022-11-25T08:14:16;8.50;99.90
41310;DHT22;27057;51.438;-0.010;2022-11-25T08:16:44;8.20;99.90
41310;DHT22;27057;51.438;-0.010;2022-11-25T08:19:15;9.70;99.90
41310;DHT22;27057;51.438;-0.010;2022-11-25T08:21:43;8.60;99.90
41310;DHT22;27057;51.438;-0.010;2022-11-25T08:24:19;8.70;99.90
41310;DHT22;27057;51.438;-0.010;2022-11-25T08:26:47;9.00;99.90
41310;DHT22;27057;51.438;-0.010;2022-11-25T08:29:17;8.30;99.90
41310;DHT22;27057;51.438;-0.010;2022-11-25T08:31:45;8.60;99.90
41310;DHT22;27057;51.438;-0.010;2022-11-25T08:34:19;8.50;99.90
41310;DHT22;27057;51.438;-0.010;2022-11-25T08:36:48;8.60;99.90
41310;DHT22;27057;51.438;-0.010;2022-11-25T08:39:17;8.60;99.90
41310;DHT22;27057;51.438;-0.010;2022-11-25T08:42:06;8.60;99.90
41310;DHT22;27057;51.438;-0.010;2022-11-25T08:44:34;8.90;99.90
41310;DHT22;27057;51.438;-0.010;2022-11-25T08:47:02;8.70;99.90
41310;DHT22;27057;51.438;-0.010;2022-11-25T08:49:29;8.60;99.90
41310;DHT22;27057;51.438;-0.010;2022-11-25T08:52:05;8.60;99.90
41310;DHT22;27057;51.438;-0.010;2022-11-25T08:54:32;8.60;99.90
41310;DHT22;27057;51.438;-0.010;2022-11-25T08:56:59;8.50;99.90
41310;DHT22;27057;51.438;-0.010;2022-11-25T08:59:26;8.90;99.90
41310;DHT22;27057;51.438;-0.010;2022-11-25T09:04:22;8.30;99.90
41310;DHT22;27057;51.438;-0.010;2022-11-25T09:06:49;8.70;99.90
41310;DHT22;27057;51.438;-0.010;2022-11-25T09:09:16;8.70;99.90
41310;DHT22;27057;51.438;-0.010;2022-11-25T09:11:44;8.80;99.90
41310;DHT22;27057;51.438;-0.010;2022-11-25T09:14:12;8.70;99.90
41310;DHT22;27057;51.438;-0.010;2022-11-25T09:16:40;8.80;99.90
41310;DHT22;27057;51.438;-0.010;2022-11-25T09:19:07;8.90;99.90
41310;DHT22;27057;51.438;-0.010;2022-11-25T09:21:34;8.90;99.90
41310;DHT22;27057;51.438;-0.010;2022-11-25T09:24:02;8.90;99.90
41310;DHT22;27057;51.438;-0.010;2022-11-25T09:26:31;8.90;99.90
41310;DHT22;27057;51.438;-0.010;2022-11-25T09:29:02;9.00;99.90
41310;DHT22;27057;51.438;-0.010;2022-11-25T09:31:31;9.00;99.90
41310;DHT22;27057;51.438;-0.010;2022-11-25T09:33:59;9.00;99.90
41310;DHT22;27057;51.438;-0.010;2022-11-25T09:36:26;9.50;99.90
41310;DHT22;27057;51.438;-0.010;2022-11-25T09:38:54;9.00;99.90
41310;DHT22;27057;51.438;-0.010;2022-11-25T09:50:52;9.30;99.90
41310;DHT22;27057;51.438;-0.010;2022-11-25T09:53:42;9.30;99.90
41310;DHT22;27057;51.438;-0.010;2022-11-25T09:56:17;9.30;99.90
41310;DHT22;27057;51.438;-0.010;2022-11-25T09:59:05;9.80;99.90
41310;DHT22;27057;51.438;-0.010;2022-11-25T10:01:42;9.50;99.90
41310;DHT22;27057;51.438;-0.010;2022-11-25T10:04:16;9.50;99.90
41310;DHT22;27057;51.438;-0.010;2022-11-25T10:06:50;9.50;99.90
41310;DHT22;27057;51.438;-0.010;2022-11-25T10:09:25;9.60;99.90
41310;DHT22;27057;51.438;-0.010;2022-11-25T10:11:59;9.60;99.90
41310;DHT22;27057;51.438;-0.010;2022-11-25T10:14:48;9.60;99.90
41310;DHT22;27057;51.438;-0.010;2022-11-25T10:20:30;11.10;99.90
41310;DHT22;27057;51.438;-0.010;2022-11-25T10:23:04;9.80;99.90
41310;DHT22;27057;51.438;-0.010;2022-11-25T10:25:41;9.90;99.90
41310;DHT22;27057;51.438;-0.010;2022-11-25T10:28:20;9.90;99.90
41310;DHT22;27057;51.438;-0.010;2022-11-25T10:31:03;10.00;99.90
41310;DHT22;27057;51.438;-0.010;2022-11-25T10:33:35;10.00;99.90
41310;DHT22;27057;51.438;-0.010;2022-11-25T10:36:11;10.10;99.90
41310;DHT22;27057;51.438;-0.010;2022-11-25T10:39:02;10.30;99.90
41310;DHT22;27057;51.438;-0.010;2022-11-25T10:41:42;10.20;99.90
41310;DHT22;27057;51.438;-0.010;2022-11-25T10:44:34;10.90;99.90
41310;DHT22;27057;51.438;-0.010;2022-11-25T10:47:30;11.70;99.90
41310;DHT22;27057;51.438;-0.010;2022-11-25T10:55:28;11.00;99.90
41310;DHT22;27057;51.438;-0.010;2022-11-25T10:57:55;10.80;99.90
41310;DHT22;27057;51.438;-0.010;2022-11-25T11:00:33;11.20;99.90
41310;DHT22;27057;51.438;-0.010;2022-11-25T11:03:24;11.10;99.90
41310;DHT22;27057;51.438;-0.010;2022-11-25T11:05:53;11.30;99.90
41310;DHT22;27057;51.438;-0.010;2022-11-25T11:13:39;12.10;99.90
41310;DHT22;27057;51.438;-0.010;2022-11-25T11:16:29;12.40;99.90
41310;DHT22;27057;51.438;-0.010;2022-11-25T11:18:58;12.70;99.90
41310;DHT22;27057;51.438;-0.010;2022-11-25T11:21:30;12.80;99.90
41310;DHT22;27057;51.438;-0.010;2022-11-25T11:23:58;13.00;99.90
41310;DHT22;27057;51.438;-0.010;2022-11-25T11:31:36;12.90;99.90
41310;DHT22;27057;51.438;-0.010;2022-11-25T11:34:29;13.30;99.90
41310;DHT22;27057;51.438;-0.010;2022-11-25T11:40:11;14.30;99.90
41310;DHT22;27057;51.438;-0.010;2022-11-25T11:48:49;13.60;99.90
41310;DHT22;27057;51.438;-0.010;2022-11-25T11:56:58;14.10;99.90
41310;DHT22;27057;51.438;-0.010;2022-11-25T12:05:14;14.40;99.90
41310;DHT22;27057;51.438;-0.010;2022-11-25T12:10:44;14.40;99.90
41310;DHT22;27057;51.438;-0.010;2022-11-25T12:16:18;14.30;99.90
41310;DHT22;27057;51.438;-0.010;2022-11-25T12:21:33;14.00;99.90
41310;DHT22;27057;51.438;-0.010;2022-11-25T12:35:06;13.90;99.90
41310;DHT22;27057;51.438;-0.010;2022-11-25T12:37:51;14.00;99.90
41310;DHT22;27057;51.438;-0.010;2022-11-25T12:48:46;14.50;99.90
41310;DHT22;27057;51.438;-0.010;2022-11-25T12:51:40;14.70;99.90
41310;DHT22;27057;51.438;-0.010;2022-11-25T13:00:00;14.90;99.90
41310;DHT22;27057;51.438;-0.010;2022-11-25T13:16:07;15.30;99.90
41310;DHT22;27057;51.438;-0.010;2022-11-25T13:18:40;15.30;99.90
41310;DHT22;27057;51.438;-0.010;2022-11-25T13:21:09;15.70;99.90
41310;DHT22;27057;51.438;-0.010;2022-11-25T13:28:55;16.20;99.90
41310;DHT22;27057;51.438;-0.010;2022-11-25T13:34:32;16.40;99.90
41310;DHT22;27057;51.438;-0.010;2022-11-25T13:37:02;16.50;99.90
41310;DHT22;27057;51.438;-0.010;2022-11-25T13:39:48;16.50;99.90
41310;DHT22;27057;51.438;-0.010;2022-11-25T13:42:24;16.30;99.90
41310;DHT22;27057;51.438;-0.010;2022-11-25T13:44:57;15.80;99.90
41310;DHT22;27057;51.438;-0.010;2022-11-25T13:50:00;15.60;99.90
41310;DHT22;27057;51.438;-0.010;2022-11-25T13:52:37;15.70;99.90
41310;DHT22;27057;51.438;-0.010;2022-11-25T13:55:23;15.60;99.90
41310;DHT22;27057;51.438;-0.010;2022-11-25T13:58:13;15.70;99.90
41310;DHT22;27057;51.438;-0.010;2022-11-25T14:25:54;16.20;99.90
41310;DHT22;27057;51.438;-0.010;2022-11-25T14:28:41;16.30;99.90
41310;DHT22;27057;51.438;-0.010;2022-11-25T14:31:14;16.60;99.90
41310;DHT22;27057;51.438;-0.010;2022-11-25T14:34:04;16.70;99.90
41310;DHT22;27057;51.438;-0.010;2022-11-25T14:36:40;16.00;99.90
41310;DHT22;27057;51.438;-0.010;2022-11-25T14:39:19;16.10;99.90
41310;DHT22;27057;51.438;-0.010;2022-11-25T14:42:09;16.00;99.90
41310;DHT22;27057;51.438;-0.010;2022-11-25T14:44:50;16.10;99.90
41310;DHT22;27057;51.438;-0.010;2022-11-25T14:47:22;16.10;99.90
41310;DHT22;27057;51.438;-0.010;2022-11-25T14:49:54;15.80;99.90
41310;DHT22;27057;51.438;-0.010;2022-11-25T14:52:42;16.20;99.90
41310;DHT22;27057;51.438;-0.010;2022-11-25T14:55:26;16.00;99.90
41310;DHT22;27057;51.438;-0.010;2022-11-25T14:57:54;15.60;99.90
41310;DHT22;27057;51.438;-0.010;2022-11-25T15:00:22;15.70;99.90
41310;DHT22;27057;51.438;-0.010;2022-11-25T15:02:58;15.50;99.90
41310;DHT22;27057;51.438;-0.010;2022-11-25T15:05:35;15.50;99.90
41310;DHT22;27057;51.438;-0.010;2022-11-25T15:08:08;15.50;99.90
41310;DHT22;27057;51.438;-0.010;2022-11-25T15:10:49;15.40;99.90
41310;DHT22;27057;51.438;-0.010;2022-11-25T15:13:31;15.50;99.90
41310;DHT22;27057;51.438;-0.010;2022-11-25T15:16:20;14.90;99.90
41310;DHT22;27057;51.438;-0.010;2022-11-25T15:18:51;15.30;99.90
41310;DHT22;27057;51.438;-0.010;2022-11-25T15:21:23;15.20;99.90
41310;DHT22;27057;51.438;-0.010;2022-11-25T15:23:53;14.90;99.90
41310;DHT22;27057;51.438;-0.010;2022-11-25T15:26:23;15.00;99.90
41310;DHT22;27057;51.438;-0.010;2022-11-25T15:28:56;14.50;99.90
41310;DHT22;27057;51.438;-0.010;2022-11-25T15:31:30;14.20;99.90
41310;DHT22;27057;51.438;-0.010;2022-11-25T15:34:10;14.00;99.90
41310;DHT22;27057;51.438;-0.010;2022-11-25T15:36:38;13.70;99.90
41310;DHT22;27057;51.438;-0.010;2022-11-25T15:41:43;13.20;99.90
41310;DHT22;27057;51.438;-0.010;2022-11-25T15:44:26;13.00;99.90
41310;DHT22;27057;51.438;-0.010;2022-11-25T15:49:25;13.00;99.90
41310;DHT22;27057;51.438;-0.010;2022-11-25T15:52:03;12.70;99.90
41310;DHT22;27057;51.438;-0.010;2022-11-25T15:54:44;12.40;99.90
41310;DHT22;27057;51.438;-0.010;2022-11-25T15:57:20;12.30;99.90
41310;DHT22;27057;51.438;-0.010;2022-11-25T15:59:50;12.60;99.90
41310;DHT22;27057;51.438;-0.010;2022-11-25T16:02:49;12.50;99.90
41310;DHT22;27057;51.438;-0.010;2022-11-25T16:05:31;12.00;99.90
41310;DHT22;27057;51.438;-0.010;2022-11-25T16:08:26;11.90;99.90
41310;DHT22;27057;51.438;-0.010;2022-11-25T16:10:57;11.80;99.90
41310;DHT22;27057;51.438;-0.010;2022-11-25T16:13:28;12.10;99.90
41310;DHT22;27057;51.438;-0.010;2022-11-25T16:26:55;11.30;99.90
41310;DHT22;27057;51.438;-0.010;2022-11-25T16:29:33;11.40;99.90
41310;DHT22;27057;51.438;-0.010;2022-11-25T16:32:09;11.40;99.90
41310;DHT22;27057;51.438;-0.010;2022-11-25T16:34:38;11.30;99.90
41310;DHT22;27057;51.438;-0.010;2022-11-25T16:37:05;11.30;99.90
41310;DHT22;27057;51.438;-0.010;2022-11-25T16:39:33;11.20;99.90
41310;DHT22;27057;51.438;-0.010;2022-11-25T16:42:01;11.20;99.90
41310;DHT22;27057;51.438;-0.010;2022-11-25T16:44:32;11.10;99.90
41310;DHT22;27057;51.438;-0.010;2022-11-25T16:47:00;11.00;99.90
41310;DHT22;27057;51.438;-0.010;2022-11-25T16:49:29;11.00;99.90
41310;DHT22;27057;51.438;-0.010;2022-11-25T16:51:57;10.90;99.90
41310;DHT22;27057;51.438;-0.010;2022-11-25T16:54:24;10.90;99.90
41310;DHT22;27057;51.438;-0.010;2022-11-25T16:56:52;10.90;99.90
41310;DHT22;27057;51.438;-0.010;2022-11-25T16:59:29;10.90;99.90
41310;DHT22;27057;51.438;-0.010;2022-11-25T17:01:58;10.80;99.90
41310;DHT22;27057;51.438;-0.010;2022-11-25T17:04:26;10.70;99.90
41310;DHT22;27057;51.438;-0.010;2022-11-25T17:06:54;10.70;99.90
41310;DHT22;27057;51.438;-0.010;2022-11-25T17:09:42;10.90;99.90
41310;DHT22;27057;51.438;-0.010;2022-11-25T17:12:26;10.90;99.90
41310;DHT22;27057;51.438;-0.010;2022-11-25T17:14:54;10.50;99.90
41310;DHT22;27057;51.438;-0.010;2022-11-25T17:17:23;10.80;99.90
41310;DHT22;27057;51.438;-0.010;2022-11-25T17:19:52;10.80;99.90
41310;DHT22;27057;51.438;-0.010;2022-11-25T17:22:25;10.70;99.90
41310;DHT22;27057;51.438;-0.010;2022-11-25T17:24:52;10.70;99.90
41310;DHT22;27057;51.438;-0.010;2022-11-25T17:27:27;10.70;99.90
41310;DHT22;27057;51.438;-0.010;2022-11-25T17:29:55;11.00;99.90
41310;DHT22;27057;51.438;-0.010;2022-11-25T17:32:24;10.50;99.90
41310;DHT22;27057;51.438;-0.010;2022-11-25T17:34:52;10.80;99.90
41310;DHT22;27057;51.438;-0.010;2022-11-25T17:37:21;10.30;99.90
41310;DHT22;27057;51.438;-0.010;2022-11-25T17:39:51;10.60;99.90
41310;DHT22;27057;51.438;-0.010;2022-11-25T17:42:27;10.30;99.90
41310;DHT22;27057;51.438;-0.010;2022-11-25T17:44:56;10.30;99.90
41310;DHT22;27057;51.438;-0.010;2022-11-25T17:47:24;10.60;99.90
41310;DHT22;27057;51.438;-0.010;2022-11-25T17:49:51;11.20;99.90
41310;DHT22;27057;51.438;-0.010;2022-11-25T17:52:19;10.20;99.90
41310;DHT22;27057;51.438;-0.010;2022-11-25T17:54:46;11.00;99.90
41310;DHT22;27057;51.438;-0.010;2022-11-25T17:57:16;10.30;99.90
41310;DHT22;27057;51.438;-0.010;2022-11-25T17:59:45;10.10;99.90
41310;DHT22;27057;51.438;-0.010;2022-11-25T18:02:20;10.20;99.90
41310;DHT22;27057;51.438;-0.010;2022-11-25T18:04:48;10.40;99.90
41310;DHT22;27057;51.438;-0.010;2022-11-25T18:07:16;10.30;99.90
41310;DHT22;27057;51.438;-0.010;2022-11-25T18:09:44;10.00;99.90
41310;DHT22;27057;51.438;-0.010;2022-11-25T18:12:16;11.10;99.90
41310;DHT22;27057;51.438;-0.010;2022-11-25T18:14:44;9.90;99.90
41310;DHT22;27057;51.438;-0.010;2022-11-25T18:17:16;10.40;99.90
41310;DHT22;27057;51.438;-0.010;2022-11-25T18:19:45;10.50;99.90
41310;DHT22;27057;51.438;-0.010;2022-11-25T18:22:20;10.50;99.90
41310;DHT22;27057;51.438;-0.010;2022-11-25T18:24:49;10.40;99.90
41310;DHT22;27057;51.438;-0.010;2022-11-25T18:27:23;10.40;99.90
41310;DHT22;27057;51.438;-0.010;2022-11-25T18:29:51;10.10;99.90
41310;DHT22;27057;51.438;-0.010;2022-11-25T18:32:20;10.20;99.90
41310;DHT22;27057;51.438;-0.010;2022-11-25T18:34:49;10.70;99.90
41310;DHT22;27057;51.438;-0.010;2022-11-25T18:37:16;10.00;99.90